sensor_id;sensor_type;location;lat;lon;timestamp;P1;durP1;ratioP1;P2;durP2;ratioP2
75165;SDS011;63747;48.042;10.088;2023-02-21T00:01:33;7.95;;;6.75;;
75165;SDS011;63747;48.042;10.088;2023-02-21T00:04:53;10.68;;;6.85;;
75165;SDS011;63747;48.042;10.088;2023-02-21T00:08:12;10.70;;;7.00;;
75165;SDS011;63747;48.042;10.088;2023-02-21T00:11:31;8.68;;;6.75;;
75165;SDS011;63747;48.042;10.088;2023-02-21T00:14:51;9.75;;;6.70;;
75165;SDS011;63747;48.042;10.088;2023-02-21T00:18:10;14.63;;;7.50;;
75165;SDS011;63747;48.042;10.088;2023-02-21T00:21:30;9.90;;;7.20;;
75165;SDS011;63747;48.042;10.088;2023-02-21T00:24:49;12.95;;;6.88;;
75165;SDS011;63747;48.042;10.088;2023-02-21T00:28:09;10.35;;;6.45;;
75165;SDS011;63747;48.042;10.088;2023-02-21T00:31:28;9.85;;;6.97;;
75165;SDS011;63747;48.042;10.088;2023-02-21T00:34:48;9.07;;;6.63;;
75165;SDS011;63747;48.042;10.088;2023-02-21T00:38:08;11.75;;;7.13;;
75165;SDS011;63747;48.042;10.088;2023-02-21T00:41:28;11.77;;;6.90;;
75165;SDS011;63747;48.042;10.088;2023-02-21T00:44:48;12.57;;;7.13;;
75165;SDS011;63747;48.042;10.088;2023-02-21T00:48:07;13.20;;;7.25;;
75165;SDS011;63747;48.042;10.088;2023-02-21T00:51:26;10.00;;;6.10;;
75165;SDS011;63747;48.042;10.088;2023-02-21T00:54:46;11.13;;;6.55;;
75165;SDS011;63747;48.042;10.088;2023-02-21T00:58:06;9.75;;;6.43;;
75165;SDS011;63747;48.042;10.088;2023-02-21T01:01:25;8.35;;;6.50;;
75165;SDS011;63747;48.042;10.088;2023-02-21T01:04:45;9.40;;;6.50;;
75165;SDS011;63747;48.042;10.088;2023-02-21T01:08:04;9.77;;;7.05;;
75165;SDS011;63747;48.042;10.088;2023-02-21T01:11:24;8.93;;;6.80;;
75165;SDS011;63747;48.042;10.088;2023-02-21T01:14:43;9.25;;;6.57;;
75165;SDS011;63747;48.042;10.088;2023-02-21T01:18:03;8.73;;;6.97;;
75165;SDS011;63747;48.042;10.088;2023-02-21T01:21:23;9.77;;;7.00;;
75165;SDS011;63747;48.042;10.088;2023-02-21T01:24:43;11.25;;;7.10;;
75165;SDS011;63747;48.042;10.088;2023-02-21T01:28:03;11.07;;;7.13;;
75165;SDS011;63747;48.042;10.088;2023-02-21T01:31:22;9.57;;;7.18;;
75165;SDS011;63747;48.042;10.088;2023-02-21T01:34:41;9.80;;;7.68;;
75165;SDS011;63747;48.042;10.088;2023-02-21T01:38:01;10.32;;;8.10;;
75165;SDS011;63747;48.042;10.088;2023-02-21T01:41:20;8.85;;;7.60;;
75165;SDS011;63747;48.042;10.088;2023-02-21T01:44:41;10.60;;;7.95;;
75165;SDS011;63747;48.042;10.088;2023-02-21T01:48:02;10.13;;;7.82;;
75165;SDS011;63747;48.042;10.088;2023-02-21T01:51:23;9.18;;;7.20;;
75165;SDS011;63747;48.042;10.088;2023-02-21T01:54:48;10.27;;;8.18;;
75165;SDS011;63747;48.042;10.088;2023-02-21T01:58:10;11.07;;;8.35;;
75165;SDS011;63747;48.042;10.088;2023-02-21T02:01:40;9.73;;;7.93;;
75165;SDS011;63747;48.042;10.088;2023-02-21T02:05:05;11.00;;;8.20;;
75165;SDS011;63747;48.042;10.088;2023-02-21T02:08:28;26.85;;;18.95;;
75165;SDS011;63747;48.042;10.088;2023-02-21T02:15:27;14.60;;;8.32;;
75165;SDS011;63747;48.042;10.088;2023-02-21T02:18:50;11.00;;;8.35;;
75165;SDS011;63747;48.042;10.088;2023-02-21T02:35:19;9.50;;;7.78;;
75165;SDS011;63747;48.042;10.088;2023-02-21T02:38:31;9.00;;;6.97;;
75165;SDS011;63747;48.042;10.088;2023-02-21T02:45:02;13.13;;;7.55;;
75165;SDS011;63747;48.042;10.088;2023-02-21T02:51:20;9.80;;;7.30;;
75165;SDS011;63747;48.042;10.088;2023-02-21T02:54:22;9.85;;;7.07;;
75165;SDS011;63747;48.042;10.088;2023-02-21T02:57:22;9.63;;;6.53;;
75165;SDS011;63747;48.042;10.088;2023-02-21T03:00:24;8.50;;;6.68;;
75165;SDS011;63747;48.042;10.088;2023-02-21T03:03:41;8.55;;;7.13;;
75165;SDS011;63747;48.042;10.088;2023-02-21T03:13:17;11.57;;;7.32;;
75165;SDS011;63747;48.042;10.088;2023-02-21T03:16:38;10.13;;;6.97;;
75165;SDS011;63747;48.042;10.088;2023-02-21T03:19:41;9.68;;;7.10;;
75165;SDS011;63747;48.042;10.088;2023-02-21T03:22:45;10.15;;;6.68;;
75165;SDS011;63747;48.042;10.088;2023-02-21T03:25:49;9.95;;;6.70;;
75165;SDS011;63747;48.042;10.088;2023-02-21T03:28:51;11.27;;;7.43;;
75165;SDS011;63747;48.042;10.088;2023-02-21T03:35:38;9.13;;;6.95;;
75165;SDS011;63747;48.042;10.088;2023-02-21T03:38:38;11.10;;;6.70;;
75165;SDS011;63747;48.042;10.088;2023-02-21T03:41:39;9.97;;;6.83;;
75165;SDS011;63747;48.042;10.088;2023-02-21T03:44:40;9.73;;;6.93;;
75165;SDS011;63747;48.042;10.088;2023-02-21T03:47:40;9.23;;;6.80;;
75165;SDS011;63747;48.042;10.088;2023-02-21T03:50:41;9.23;;;7.23;;
75165;SDS011;63747;48.042;10.088;2023-02-21T03:53:42;9.40;;;6.50;;
75165;SDS011;63747;48.042;10.088;2023-02-21T03:56:42;9.43;;;6.60;;
75165;SDS011;63747;48.042;10.088;2023-02-21T03:59:43;10.73;;;6.57;;
75165;SDS011;63747;48.042;10.088;2023-02-21T04:02:44;12.02;;;7.25;;
75165;SDS011;63747;48.042;10.088;2023-02-21T04:05:45;18.40;;;10.03;;
75165;SDS011;63747;48.042;10.088;2023-02-21T04:08:46;17.60;;;10.23;;
75165;SDS011;63747;48.042;10.088;2023-02-21T04:11:46;10.07;;;8.50;;
75165;SDS011;63747;48.042;10.088;2023-02-21T04:14:47;11.33;;;7.87;;
75165;SDS011;63747;48.042;10.088;2023-02-21T04:17:48;9.53;;;7.53;;
75165;SDS011;63747;48.042;10.088;2023-02-21T04:20:48;12.50;;;8.00;;
75165;SDS011;63747;48.042;10.088;2023-02-21T04:23:49;13.90;;;8.37;;
75165;SDS011;63747;48.042;10.088;2023-02-21T04:26:53;14.43;;;7.90;;
75165;SDS011;63747;48.042;10.088;2023-02-21T04:29:54;13.63;;;10.18;;
75165;SDS011;63747;48.042;10.088;2023-02-21T04:32:54;17.00;;;12.63;;
75165;SDS011;63747;48.042;10.088;2023-02-21T04:35:56;11.98;;;8.95;;
75165;SDS011;63747;48.042;10.088;2023-02-21T04:38:57;11.50;;;8.73;;
75165;SDS011;63747;48.042;10.088;2023-02-21T04:41:57;13.50;;;8.20;;
75165;SDS011;63747;48.042;10.088;2023-02-21T04:44:58;13.13;;;9.13;;
75165;SDS011;63747;48.042;10.088;2023-02-21T04:47:59;10.60;;;8.43;;
75165;SDS011;63747;48.042;10.088;2023-02-21T04:50:59;9.13;;;7.73;;
75165;SDS011;63747;48.042;10.088;2023-02-21T04:54:00;15.07;;;8.60;;
75165;SDS011;63747;48.042;10.088;2023-02-21T04:57:01;13.87;;;8.20;;
75165;SDS011;63747;48.042;10.088;2023-02-21T05:00:02;12.83;;;7.53;;
75165;SDS011;63747;48.042;10.088;2023-02-21T05:03:06;10.93;;;7.50;;
75165;SDS011;63747;48.042;10.088;2023-02-21T05:06:07;11.93;;;8.07;;
75165;SDS011;63747;48.042;10.088;2023-02-21T05:09:07;10.90;;;7.30;;
75165;SDS011;63747;48.042;10.088;2023-02-21T05:12:08;13.67;;;7.33;;
75165;SDS011;63747;48.042;10.088;2023-02-21T05:15:12;11.77;;;7.53;;
75165;SDS011;63747;48.042;10.088;2023-02-21T05:18:13;11.13;;;7.35;;
75165;SDS011;63747;48.042;10.088;2023-02-21T05:21:22;10.23;;;7.45;;
75165;SDS011;63747;48.042;10.088;2023-02-21T05:24:23;9.70;;;6.70;;
75165;SDS011;63747;48.042;10.088;2023-02-21T05:27:25;10.80;;;7.18;;
75165;SDS011;63747;48.042;10.088;2023-02-21T05:30:25;11.47;;;7.27;;
75165;SDS011;63747;48.042;10.088;2023-02-21T05:33:26;11.93;;;7.47;;
75165;SDS011;63747;48.042;10.088;2023-02-21T05:36:27;8.57;;;6.40;;
75165;SDS011;63747;48.042;10.088;2023-02-21T05:39:28;12.70;;;6.80;;
75165;SDS011;63747;48.042;10.088;2023-02-21T05:42:29;10.80;;;7.07;;
75165;SDS011;63747;48.042;10.088;2023-02-21T05:45:30;10.68;;;6.15;;
75165;SDS011;63747;48.042;10.088;2023-02-21T05:48:31;10.03;;;6.17;;
75165;SDS011;63747;48.042;10.088;2023-02-21T05:51:35;11.00;;;6.93;;
75165;SDS011;63747;48.042;10.088;2023-02-21T05:54:37;9.30;;;6.25;;
75165;SDS011;63747;48.042;10.088;2023-02-21T05:57:38;10.70;;;6.43;;
75165;SDS011;63747;48.042;10.088;2023-02-21T06:00:39;8.33;;;6.27;;
75165;SDS011;63747;48.042;10.088;2023-02-21T06:03:39;8.87;;;6.47;;
75165;SDS011;63747;48.042;10.088;2023-02-21T06:06:40;11.43;;;7.90;;
75165;SDS011;63747;48.042;10.088;2023-02-21T06:09:41;12.95;;;7.85;;
75165;SDS011;63747;48.042;10.088;2023-02-21T06:12:42;11.03;;;6.77;;
75165;SDS011;63747;48.042;10.088;2023-02-21T06:15:43;12.10;;;7.53;;
75165;SDS011;63747;48.042;10.088;2023-02-21T06:18:44;14.47;;;8.13;;
75165;SDS011;63747;48.042;10.088;2023-02-21T06:21:45;15.13;;;6.97;;
75165;SDS011;63747;48.042;10.088;2023-02-21T06:24:46;10.27;;;6.27;;
75165;SDS011;63747;48.042;10.088;2023-02-21T06:27:46;8.80;;;6.40;;
75165;SDS011;63747;48.042;10.088;2023-02-21T06:30:48;13.63;;;6.35;;
75165;SDS011;63747;48.042;10.088;2023-02-21T06:33:49;12.90;;;8.57;;
75165;SDS011;63747;48.042;10.088;2023-02-21T06:36:50;16.90;;;9.30;;
75165;SDS011;63747;48.042;10.088;2023-02-21T06:39:52;17.13;;;8.75;;
75165;SDS011;63747;48.042;10.088;2023-02-21T06:42:53;13.50;;;8.53;;
75165;SDS011;63747;48.042;10.088;2023-02-21T06:45:53;10.90;;;8.50;;
75165;SDS011;63747;48.042;10.088;2023-02-21T06:48:54;12.47;;;7.73;;
75165;SDS011;63747;48.042;10.088;2023-02-21T06:51:55;13.10;;;7.13;;
75165;SDS011;63747;48.042;10.088;2023-02-21T06:54:55;11.90;;;7.93;;
75165;SDS011;63747;48.042;10.088;2023-02-21T06:57:56;15.57;;;9.30;;
75165;SDS011;63747;48.042;10.088;2023-02-21T07:00:57;10.37;;;7.27;;
75165;SDS011;63747;48.042;10.088;2023-02-21T07:03:57;12.70;;;7.87;;
75165;SDS011;63747;48.042;10.088;2023-02-21T07:06:58;8.93;;;6.17;;
75165;SDS011;63747;48.042;10.088;2023-02-21T07:09:59;7.73;;;5.20;;
75165;SDS011;63747;48.042;10.088;2023-02-21T07:13:00;6.40;;;4.90;;
75165;SDS011;63747;48.042;10.088;2023-02-21T07:16:01;12.37;;;5.10;;
75165;SDS011;63747;48.042;10.088;2023-02-21T07:19:02;9.80;;;5.30;;
75165;SDS011;63747;48.042;10.088;2023-02-21T07:22:02;9.37;;;5.07;;
75165;SDS011;63747;48.042;10.088;2023-02-21T07:25:03;8.13;;;4.60;;
75165;SDS011;63747;48.042;10.088;2023-02-21T07:28:04;7.15;;;4.88;;
75165;SDS011;63747;48.042;10.088;2023-02-21T07:31:05;7.87;;;5.03;;
75165;SDS011;63747;48.042;10.088;2023-02-21T07:34:05;10.77;;;4.80;;
75165;SDS011;63747;48.042;10.088;2023-02-21T07:37:06;7.03;;;4.43;;
75165;SDS011;63747;48.042;10.088;2023-02-21T07:40:07;6.87;;;4.63;;
75165;SDS011;63747;48.042;10.088;2023-02-21T07:43:08;6.78;;;4.57;;
75165;SDS011;63747;48.042;10.088;2023-02-21T07:46:09;10.13;;;4.93;;
75165;SDS011;63747;48.042;10.088;2023-02-21T07:49:11;7.30;;;4.22;;
75165;SDS011;63747;48.042;10.088;2023-02-21T07:52:12;5.90;;;4.03;;
75165;SDS011;63747;48.042;10.088;2023-02-21T07:55:13;6.10;;;3.90;;
75165;SDS011;63747;48.042;10.088;2023-02-21T07:58:14;6.45;;;3.50;;
75165;SDS011;63747;48.042;10.088;2023-02-21T08:01:14;7.13;;;3.67;;
75165;SDS011;63747;48.042;10.088;2023-02-21T08:04:15;4.13;;;3.50;;
75165;SDS011;63747;48.042;10.088;2023-02-21T08:07:20;6.32;;;3.85;;
75165;SDS011;63747;48.042;10.088;2023-02-21T08:10:22;6.70;;;3.50;;
75165;SDS011;63747;48.042;10.088;2023-02-21T08:13:24;8.75;;;4.45;;
75165;SDS011;63747;48.042;10.088;2023-02-21T08:16:25;8.47;;;3.80;;
75165;SDS011;63747;48.042;10.088;2023-02-21T08:19:27;7.97;;;4.30;;
75165;SDS011;63747;48.042;10.088;2023-02-21T08:22:27;5.27;;;3.80;;
75165;SDS011;63747;48.042;10.088;2023-02-21T08:25:28;5.53;;;3.33;;
75165;SDS011;63747;48.042;10.088;2023-02-21T08:28:29;8.70;;;3.97;;
75165;SDS011;63747;48.042;10.088;2023-02-21T08:31:33;10.60;;;3.97;;
75165;SDS011;63747;48.042;10.088;2023-02-21T08:34:35;5.15;;;3.60;;
75165;SDS011;63747;48.042;10.088;2023-02-21T08:37:35;7.27;;;3.87;;
75165;SDS011;63747;48.042;10.088;2023-02-21T08:40:44;7.28;;;3.90;;
75165;SDS011;63747;48.042;10.088;2023-02-21T08:43:45;4.73;;;3.40;;
75165;SDS011;63747;48.042;10.088;2023-02-21T08:46:46;7.63;;;3.28;;
75165;SDS011;63747;48.042;10.088;2023-02-21T08:49:47;7.60;;;4.07;;
75165;SDS011;63747;48.042;10.088;2023-02-21T08:52:48;4.78;;;3.78;;
75165;SDS011;63747;48.042;10.088;2023-02-21T08:55:50;6.75;;;4.00;;
75165;SDS011;63747;48.042;10.088;2023-02-21T08:58:51;5.20;;;4.00;;
75165;SDS011;63747;48.042;10.088;2023-02-21T09:01:55;4.90;;;3.53;;
75165;SDS011;63747;48.042;10.088;2023-02-21T09:04:56;5.50;;;3.67;;
75165;SDS011;63747;48.042;10.088;2023-02-21T09:07:57;5.60;;;3.80;;
75165;SDS011;63747;48.042;10.088;2023-02-21T09:11:00;7.13;;;4.15;;
75165;SDS011;63747;48.042;10.088;2023-02-21T09:14:01;4.80;;;2.93;;
75165;SDS011;63747;48.042;10.088;2023-02-21T09:17:05;8.32;;;3.40;;
75165;SDS011;63747;48.042;10.088;2023-02-21T09:20:08;5.32;;;3.15;;
75165;SDS011;63747;48.042;10.088;2023-02-21T09:23:11;5.85;;;3.03;;
75165;SDS011;63747;48.042;10.088;2023-02-21T09:26:14;7.00;;;3.00;;
75165;SDS011;63747;48.042;10.088;2023-02-21T09:29:16;7.07;;;3.58;;
75165;SDS011;63747;48.042;10.088;2023-02-21T09:32:18;6.28;;;3.40;;
75165;SDS011;63747;48.042;10.088;2023-02-21T09:35:19;7.47;;;3.50;;
75165;SDS011;63747;48.042;10.088;2023-02-21T09:38:19;8.27;;;3.70;;
75165;SDS011;63747;48.042;10.088;2023-02-21T09:41:20;10.77;;;4.03;;
75165;SDS011;63747;48.042;10.088;2023-02-21T09:44:22;8.40;;;3.90;;
75165;SDS011;63747;48.042;10.088;2023-02-21T09:47:27;8.38;;;3.70;;
75165;SDS011;63747;48.042;10.088;2023-02-21T09:50:34;7.22;;;3.88;;
75165;SDS011;63747;48.042;10.088;2023-02-21T09:53:41;6.15;;;4.10;;
75165;SDS011;63747;48.042;10.088;2023-02-21T09:56:45;7.88;;;3.85;;
75165;SDS011;63747;48.042;10.088;2023-02-21T09:59:46;6.45;;;3.63;;
75165;SDS011;63747;48.042;10.088;2023-02-21T10:02:53;6.95;;;3.40;;
75165;SDS011;63747;48.042;10.088;2023-02-21T10:06:17;7.90;;;3.60;;
75165;SDS011;63747;48.042;10.088;2023-02-21T10:19:36;4.72;;;3.10;;
75165;SDS011;63747;48.042;10.088;2023-02-21T10:22:42;4.53;;;2.85;;
75165;SDS011;63747;48.042;10.088;2023-02-21T10:25:46;5.95;;;3.10;;
75165;SDS011;63747;48.042;10.088;2023-02-21T10:28:47;6.47;;;2.90;;
75165;SDS011;63747;48.042;10.088;2023-02-21T10:31:51;4.60;;;3.05;;
75165;SDS011;63747;48.042;10.088;2023-02-21T10:34:56;3.58;;;2.85;;
75165;SDS011;63747;48.042;10.088;2023-02-21T10:37:58;5.88;;;2.70;;
75165;SDS011;63747;48.042;10.088;2023-02-21T10:41:01;4.05;;;2.70;;
75165;SDS011;63747;48.042;10.088;2023-02-21T10:44:14;8.63;;;3.35;;
75165;SDS011;63747;48.042;10.088;2023-02-21T10:47:22;3.95;;;2.83;;
75165;SDS011;63747;48.042;10.088;2023-02-21T10:54:20;5.43;;;2.75;;
75165;SDS011;63747;48.042;10.088;2023-02-21T10:57:24;6.43;;;3.10;;
75165;SDS011;63747;48.042;10.088;2023-02-21T11:00:36;3.78;;;2.78;;
75165;SDS011;63747;48.042;10.088;2023-02-21T11:03:41;4.30;;;2.72;;
75165;SDS011;63747;48.042;10.088;2023-02-21T11:09:56;5.22;;;2.80;;
75165;SDS011;63747;48.042;10.088;2023-02-21T11:13:02;5.38;;;2.65;;
75165;SDS011;63747;48.042;10.088;2023-02-21T11:16:18;4.60;;;2.70;;
75165;SDS011;63747;48.042;10.088;2023-02-21T11:19:21;5.47;;;3.00;;
75165;SDS011;63747;48.042;10.088;2023-02-21T11:25:39;3.85;;;2.67;;
75165;SDS011;63747;48.042;10.088;2023-02-21T11:28:41;4.93;;;2.60;;
75165;SDS011;63747;48.042;10.088;2023-02-21T11:31:44;3.30;;;2.60;;
75165;SDS011;63747;48.042;10.088;2023-02-21T11:34:45;5.63;;;2.08;;
75165;SDS011;63747;48.042;10.088;2023-02-21T11:37:51;4.25;;;2.22;;
75165;SDS011;63747;48.042;10.088;2023-02-21T11:40:57;4.38;;;2.60;;
75165;SDS011;63747;48.042;10.088;2023-02-21T11:43:58;3.58;;;2.50;;
75165;SDS011;63747;48.042;10.088;2023-02-21T11:47:11;4.65;;;2.53;;
75165;SDS011;63747;48.042;10.088;2023-02-21T11:53:27;4.13;;;2.50;;
75165;SDS011;63747;48.042;10.088;2023-02-21T11:56:41;4.30;;;2.70;;
75165;SDS011;63747;48.042;10.088;2023-02-21T11:59:51;3.20;;;2.28;;
75165;SDS011;63747;48.042;10.088;2023-02-21T12:06:04;4.43;;;2.17;;
75165;SDS011;63747;48.042;10.088;2023-02-21T12:19:38;3.92;;;2.28;;
75165;SDS011;63747;48.042;10.088;2023-02-21T12:29:42;4.72;;;2.10;;
75165;SDS011;63747;48.042;10.088;2023-02-21T12:36:08;4.80;;;3.53;;
75165;SDS011;63747;48.042;10.088;2023-02-21T12:39:21;6.93;;;3.10;;
75165;SDS011;63747;48.042;10.088;2023-02-21T12:46:02;3.25;;;2.08;;
75165;SDS011;63747;48.042;10.088;2023-02-21T12:49:12;4.35;;;2.30;;
75165;SDS011;63747;48.042;10.088;2023-02-21T12:52:19;1.85;;;1.40;;
75165;SDS011;63747;48.042;10.088;2023-02-21T12:55:25;2.60;;;1.40;;
75165;SDS011;63747;48.042;10.088;2023-02-21T12:58:40;2.45;;;1.80;;
75165;SDS011;63747;48.042;10.088;2023-02-21T13:01:47;4.15;;;1.65;;
75165;SDS011;63747;48.042;10.088;2023-02-21T13:04:53;3.25;;;1.77;;
75165;SDS011;63747;48.042;10.088;2023-02-21T13:08:00;2.40;;;1.80;;
75165;SDS011;63747;48.042;10.088;2023-02-21T13:14:28;3.58;;;1.75;;
75165;SDS011;63747;48.042;10.088;2023-02-21T13:17:47;3.28;;;1.92;;
75165;SDS011;63747;48.042;10.088;2023-02-21T13:21:07;3.75;;;1.60;;
75165;SDS011;63747;48.042;10.088;2023-02-21T13:24:15;3.47;;;2.00;;
75165;SDS011;63747;48.042;10.088;2023-02-21T13:31:01;3.92;;;2.30;;
75165;SDS011;63747;48.042;10.088;2023-02-21T13:34:05;3.47;;;1.98;;
75165;SDS011;63747;48.042;10.088;2023-02-21T13:37:13;2.92;;;2.10;;
75165;SDS011;63747;48.042;10.088;2023-02-21T13:43:44;3.97;;;1.60;;
75165;SDS011;63747;48.042;10.088;2023-02-21T13:49:52;3.53;;;2.00;;
75165;SDS011;63747;48.042;10.088;2023-02-21T13:53:02;4.50;;;2.10;;
75165;SDS011;63747;48.042;10.088;2023-02-21T13:56:13;4.50;;;1.98;;
75165;SDS011;63747;48.042;10.088;2023-02-21T14:02:26;2.50;;;1.42;;
75165;SDS011;63747;48.042;10.088;2023-02-21T14:08:48;2.70;;;1.67;;
75165;SDS011;63747;48.042;10.088;2023-02-21T14:11:55;2.35;;;1.60;;
75165;SDS011;63747;48.042;10.088;2023-02-21T14:15:04;4.63;;;1.58;;
75165;SDS011;63747;48.042;10.088;2023-02-21T14:18:13;4.75;;;1.70;;
75165;SDS011;63747;48.042;10.088;2023-02-21T14:21:42;2.35;;;1.65;;
75165;SDS011;63747;48.042;10.088;2023-02-21T14:24:46;2.97;;;1.70;;
75165;SDS011;63747;48.042;10.088;2023-02-21T14:27:49;2.65;;;1.52;;
75165;SDS011;63747;48.042;10.088;2023-02-21T14:31:00;2.50;;;1.60;;
75165;SDS011;63747;48.042;10.088;2023-02-21T14:34:02;2.03;;;1.40;;
75165;SDS011;63747;48.042;10.088;2023-02-21T14:37:14;3.38;;;1.65;;
75165;SDS011;63747;48.042;10.088;2023-02-21T14:40:30;2.60;;;1.58;;
75165;SDS011;63747;48.042;10.088;2023-02-21T14:43:37;2.40;;;1.42;;
75165;SDS011;63747;48.042;10.088;2023-02-21T14:46:59;3.55;;;1.63;;
75165;SDS011;63747;48.042;10.088;2023-02-21T15:00:35;7.13;;;1.77;;
75165;SDS011;63747;48.042;10.088;2023-02-21T15:04:07;4.10;;;1.98;;
75165;SDS011;63747;48.042;10.088;2023-02-21T15:07:20;3.47;;;1.90;;
75165;SDS011;63747;48.042;10.088;2023-02-21T15:10:24;5.30;;;1.40;;
75165;SDS011;63747;48.042;10.088;2023-02-21T15:13:27;4.90;;;1.90;;
75165;SDS011;63747;48.042;10.088;2023-02-21T15:16:30;4.28;;;1.58;;
75165;SDS011;63747;48.042;10.088;2023-02-21T15:19:32;1.90;;;1.50;;
75165;SDS011;63747;48.042;10.088;2023-02-21T15:22:35;2.05;;;1.50;;
75165;SDS011;63747;48.042;10.088;2023-02-21T15:28:36;2.03;;;1.30;;
75165;SDS011;63747;48.042;10.088;2023-02-21T15:31:47;5.28;;;1.10;;
75165;SDS011;63747;48.042;10.088;2023-02-21T15:34:51;2.83;;;1.08;;
75165;SDS011;63747;48.042;10.088;2023-02-21T15:37:53;1.73;;;1.00;;
75165;SDS011;63747;48.042;10.088;2023-02-21T15:41:05;4.55;;;1.25;;
75165;SDS011;63747;48.042;10.088;2023-02-21T15:44:23;4.13;;;2.00;;
75165;SDS011;63747;48.042;10.088;2023-02-21T15:47:31;4.45;;;2.40;;
75165;SDS011;63747;48.042;10.088;2023-02-21T15:53:37;3.67;;;2.50;;
75165;SDS011;63747;48.042;10.088;2023-02-21T15:56:37;2.83;;;1.98;;
75165;SDS011;63747;48.042;10.088;2023-02-21T15:59:38;4.10;;;2.00;;
75165;SDS011;63747;48.042;10.088;2023-02-21T16:02:39;4.45;;;2.58;;
75165;SDS011;63747;48.042;10.088;2023-02-21T16:05:40;4.63;;;2.25;;
75165;SDS011;63747;48.042;10.088;2023-02-21T16:08:54;5.28;;;2.33;;
75165;SDS011;63747;48.042;10.088;2023-02-21T16:12:17;4.57;;;1.92;;
75165;SDS011;63747;48.042;10.088;2023-02-21T16:15:33;5.57;;;2.47;;
75165;SDS011;63747;48.042;10.088;2023-02-21T16:18:35;5.50;;;2.38;;
75165;SDS011;63747;48.042;10.088;2023-02-21T16:21:35;4.15;;;2.53;;
75165;SDS011;63747;48.042;10.088;2023-02-21T16:24:37;7.93;;;2.70;;
75165;SDS011;63747;48.042;10.088;2023-02-21T16:27:38;4.88;;;2.60;;
75165;SDS011;63747;48.042;10.088;2023-02-21T16:30:40;5.95;;;2.67;;
75165;SDS011;63747;48.042;10.088;2023-02-21T16:33:41;4.38;;;2.45;;
75165;SDS011;63747;48.042;10.088;2023-02-21T16:36:42;5.57;;;1.95;;
75165;SDS011;63747;48.042;10.088;2023-02-21T16:39:42;6.13;;;2.45;;
75165;SDS011;63747;48.042;10.088;2023-02-21T16:42:43;4.38;;;2.40;;
75165;SDS011;63747;48.042;10.088;2023-02-21T16:45:44;5.32;;;3.25;;
75165;SDS011;63747;48.042;10.088;2023-02-21T16:48:47;5.47;;;2.83;;
75165;SDS011;63747;48.042;10.088;2023-02-21T16:51:48;5.03;;;2.97;;
75165;SDS011;63747;48.042;10.088;2023-02-21T16:54:48;5.50;;;2.55;;
75165;SDS011;63747;48.042;10.088;2023-02-21T16:57:49;6.53;;;3.13;;
75165;SDS011;63747;48.042;10.088;2023-02-21T17:00:53;6.07;;;3.72;;
75165;SDS011;63747;48.042;10.088;2023-02-21T17:03:56;8.25;;;4.25;;
75165;SDS011;63747;48.042;10.088;2023-02-21T17:06:58;8.73;;;4.82;;
75165;SDS011;63747;48.042;10.088;2023-02-21T17:10:03;8.70;;;5.38;;
75165;SDS011;63747;48.042;10.088;2023-02-21T17:13:04;9.27;;;5.22;;
75165;SDS011;63747;48.042;10.088;2023-02-21T17:16:05;10.27;;;6.28;;
75165;SDS011;63747;48.042;10.088;2023-02-21T17:19:06;11.43;;;5.72;;
75165;SDS011;63747;48.042;10.088;2023-02-21T17:22:11;10.35;;;5.50;;
75165;SDS011;63747;48.042;10.088;2023-02-21T17:25:12;12.65;;;5.80;;
75165;SDS011;63747;48.042;10.088;2023-02-21T17:28:12;14.98;;;6.18;;
75165;SDS011;63747;48.042;10.088;2023-02-21T17:31:14;16.00;;;6.90;;
75165;SDS011;63747;48.042;10.088;2023-02-21T17:34:17;34.15;;;17.55;;
75165;SDS011;63747;48.042;10.088;2023-02-21T17:37:18;15.05;;;7.82;;
75165;SDS011;63747;48.042;10.088;2023-02-21T17:40:19;11.00;;;6.75;;
75165;SDS011;63747;48.042;10.088;2023-02-21T17:43:21;14.65;;;8.02;;
75165;SDS011;63747;48.042;10.088;2023-02-21T17:46:21;10.50;;;7.25;;
75165;SDS011;63747;48.042;10.088;2023-02-21T17:49:23;16.95;;;7.85;;
75165;SDS011;63747;48.042;10.088;2023-02-21T17:52:26;14.43;;;7.32;;
75165;SDS011;63747;48.042;10.088;2023-02-21T17:55:27;13.25;;;8.25;;
75165;SDS011;63747;48.042;10.088;2023-02-21T17:58:29;13.45;;;7.88;;
75165;SDS011;63747;48.042;10.088;2023-02-21T18:01:29;12.57;;;7.93;;
75165;SDS011;63747;48.042;10.088;2023-02-21T18:04:30;14.55;;;7.88;;
75165;SDS011;63747;48.042;10.088;2023-02-21T18:07:31;13.47;;;8.77;;
75165;SDS011;63747;48.042;10.088;2023-02-21T18:10:31;13.60;;;8.60;;
75165;SDS011;63747;48.042;10.088;2023-02-21T18:13:32;18.73;;;12.37;;
75165;SDS011;63747;48.042;10.088;2023-02-21T18:16:33;31.60;;;16.23;;
75165;SDS011;63747;48.042;10.088;2023-02-21T18:19:34;24.30;;;15.33;;
75165;SDS011;63747;48.042;10.088;2023-02-21T18:22:35;21.13;;;12.50;;
75165;SDS011;63747;48.042;10.088;2023-02-21T18:25:37;22.90;;;12.13;;
75165;SDS011;63747;48.042;10.088;2023-02-21T18:28:38;16.45;;;10.48;;
75165;SDS011;63747;48.042;10.088;2023-02-21T18:31:39;18.67;;;10.15;;
75165;SDS011;63747;48.042;10.088;2023-02-21T18:34:41;24.03;;;12.77;;
75165;SDS011;63747;48.042;10.088;2023-02-21T18:37:42;22.08;;;14.15;;
75165;SDS011;63747;48.042;10.088;2023-02-21T18:40:45;21.02;;;12.40;;
75165;SDS011;63747;48.042;10.088;2023-02-21T18:43:46;22.08;;;14.15;;
75165;SDS011;63747;48.042;10.088;2023-02-21T18:46:52;25.70;;;15.60;;
75165;SDS011;63747;48.042;10.088;2023-02-21T18:49:54;23.92;;;16.20;;
75165;SDS011;63747;48.042;10.088;2023-02-21T18:52:55;27.85;;;16.25;;
75165;SDS011;63747;48.042;10.088;2023-02-21T18:55:56;22.25;;;13.45;;
75165;SDS011;63747;48.042;10.088;2023-02-21T18:58:57;28.00;;;14.57;;
75165;SDS011;63747;48.042;10.088;2023-02-21T19:01:58;29.48;;;17.42;;
75165;SDS011;63747;48.042;10.088;2023-02-21T19:04:59;32.88;;;20.25;;
75165;SDS011;63747;48.042;10.088;2023-02-21T19:08:00;36.27;;;20.97;;
75165;SDS011;63747;48.042;10.088;2023-02-21T19:11:01;23.42;;;13.02;;
75165;SDS011;63747;48.042;10.088;2023-02-21T19:14:01;32.28;;;18.25;;
75165;SDS011;63747;48.042;10.088;2023-02-21T19:17:04;25.17;;;15.52;;
75165;SDS011;63747;48.042;10.088;2023-02-21T19:20:05;31.02;;;18.27;;
75165;SDS011;63747;48.042;10.088;2023-02-21T19:23:08;25.30;;;16.08;;
75165;SDS011;63747;48.042;10.088;2023-02-21T19:26:11;21.30;;;13.35;;
75165;SDS011;63747;48.042;10.088;2023-02-21T19:29:11;20.20;;;11.67;;
75165;SDS011;63747;48.042;10.088;2023-02-21T19:32:12;15.30;;;10.15;;
75165;SDS011;63747;48.042;10.088;2023-02-21T19:35:13;14.60;;;9.77;;
75165;SDS011;63747;48.042;10.088;2023-02-21T19:38:13;15.00;;;8.80;;
75165;SDS011;63747;48.042;10.088;2023-02-21T19:41:14;10.63;;;7.57;;
75165;SDS011;63747;48.042;10.088;2023-02-21T19:44:16;8.98;;;6.47;;
75165;SDS011;63747;48.042;10.088;2023-02-21T19:47:17;12.57;;;7.10;;
75165;SDS011;63747;48.042;10.088;2023-02-21T19:50:18;11.63;;;7.83;;
75165;SDS011;63747;48.042;10.088;2023-02-21T19:53:19;13.20;;;9.30;;
75165;SDS011;63747;48.042;10.088;2023-02-21T19:56:19;14.63;;;7.80;;
75165;SDS011;63747;48.042;10.088;2023-02-21T19:59:21;10.30;;;6.78;;
75165;SDS011;63747;48.042;10.088;2023-02-21T20:02:22;10.13;;;6.90;;
75165;SDS011;63747;48.042;10.088;2023-02-21T20:05:22;9.80;;;7.30;;
75165;SDS011;63747;48.042;10.088;2023-02-21T20:08:23;9.17;;;6.77;;
75165;SDS011;63747;48.042;10.088;2023-02-21T20:11:24;11.07;;;6.65;;
75165;SDS011;63747;48.042;10.088;2023-02-21T20:14:25;11.03;;;6.93;;